Portada
METAR-TAF:

METAR-TAF

Aeroports :

Aeroport d'Oujda-Angads

Oujda, Marroc

latitud: 34-47N, longitud: 001-56W, altitud: 468 m

Observació

L'informe es va fer fa 1 hora i 0 minuts, a les 08:00 UTC
Vent 5 kt del Oest/Nord-Oest, variant entre Oest/Sud-Oest i Nord
Temperatura 12°C
Humitat 82%
Pressió 1020 hPa
Visibilitat 10 km o més
Núvols disperses a una alçada de 2600 ft
Cel ennuvolat a una alçada de 6000 ft
pluja

METAR: GMFO 240800Z 29005KT 250V010 9999 RA SCT026 BKN060 12/09 Q1020 RERA NOSIG

Hora: 09:00 (09:00 UTC)

Pronòstic

L'informe es va fer fa 4 hores i 0 minuts, a les 05:00 UTC
Pronòstic vàlid del 24 a les 06 UTC al 25 a les 12 UTC
Vent 4 kt del Oest/Sud-Oest
Visibilitat 10 km o més
Escasses núvols a una alçada de 2600 ft
Cel ennuvolat a una alçada de 10000 ft
Temporalment
l' 24 a les 12 UTC al 24 a les 18 UTC
Vent 14 kt del Nord/Nord-Oest

TAF: GMFO 240500Z 2406/2512 24004KT 9999 FEW026 BKN100 TEMPO 2412/2418 34014KT

Observacions i pronòstics meteorològics de més de 4000 aeroports (METAR i TAF).

Les estacions disponibles són els punts grocs i vermells al mapa.

Posi el ratolí al punt desitjat per veure el nom de l'estació.

Feu clic per veure les observacions i els pronòstics meteorològics.

Per canviar el mapa: feu clic els botons verds amb una creu de color negre per apropar; al botó verd amb un guió per allunyar la imatge; o en les fletxes verdes per a mapes adjacents.


METAR-TAF: